sensor_id;sensor_type;location;lat;lon;timestamp;pressure;altitude;pressure_sealevel;temperature;humidity
18652;BME280;9455;54.302;10.124;2024-03-02T00:00:38;100440.41;;;9.00;100.00
18652;BME280;9455;54.302;10.124;2024-03-02T00:03:06;100439.31;;;9.03;100.00
18652;BME280;9455;54.302;10.124;2024-03-02T00:05:35;100442.03;;;8.92;100.00
18652;BME280;9455;54.302;10.124;2024-03-02T00:08:05;100436.22;;;8.98;100.00
18652;BME280;9455;54.302;10.124;2024-03-02T00:10:36;100433.34;;;8.90;100.00
18652;BME280;9455;54.302;10.124;2024-03-02T00:13:05;100441.69;;;8.85;100.00
18652;BME280;9455;54.302;10.124;2024-03-02T00:15:42;100434.06;;;8.92;100.00
18652;BME280;9455;54.302;10.124;2024-03-02T00:18:16;100429.69;;;8.91;100.00
18652;BME280;9455;54.302;10.124;2024-03-02T00:20:44;100420.31;;;8.87;100.00
18652;BME280;9455;54.302;10.124;2024-03-02T00:23:15;100430.81;;;8.88;100.00
18652;BME280;9455;54.302;10.124;2024-03-02T00:25:44;100418.06;;;8.82;100.00
18652;BME280;9455;54.302;10.124;2024-03-02T00:28:14;100417.72;;;8.55;100.00
18652;BME280;9455;54.302;10.124;2024-03-02T00:30:55;100416.94;;;8.64;100.00
18652;BME280;9455;54.302;10.124;2024-03-02T00:33:26;100412.06;;;8.48;100.00
18652;BME280;9455;54.302;10.124;2024-03-02T00:35:53;100403.25;;;8.69;100.00
18652;BME280;9455;54.302;10.124;2024-03-02T00:38:20;100396.56;;;8.74;100.00
18652;BME280;9455;54.302;10.124;2024-03-02T00:40:47;100400.59;;;8.89;100.00
18652;BME280;9455;54.302;10.124;2024-03-02T00:46:11;100396.22;;;8.58;100.00
18652;BME280;9455;54.302;10.124;2024-03-02T00:48:48;100397.53;;;8.52;100.00
18652;BME280;9455;54.302;10.124;2024-03-02T00:51:17;100391.09;;;8.66;100.00
18652;BME280;9455;54.302;10.124;2024-03-02T00:53:44;100404.59;;;8.84;100.00
18652;BME280;9455;54.302;10.124;2024-03-02T00:56:11;100397.06;;;8.79;100.00
18652;BME280;9455;54.302;10.124;2024-03-02T00:58:38;100393.41;;;8.80;100.00
18652;BME280;9455;54.302;10.124;2024-03-02T01:01:05;100386.03;;;8.63;100.00
18652;BME280;9455;54.302;10.124;2024-03-02T01:03:32;100394.44;;;8.48;100.00
18652;BME280;9455;54.302;10.124;2024-03-02T01:06:00;100389.38;;;8.44;100.00
18652;BME280;9455;54.302;10.124;2024-03-02T01:08:27;100382.06;;;8.78;100.00
18652;BME280;9455;54.302;10.124;2024-03-02T01:10:54;100380.63;;;8.74;100.00
18652;BME280;9455;54.302;10.124;2024-03-02T01:13:21;100378.34;;;8.70;100.00
18652;BME280;9455;54.302;10.124;2024-03-02T01:15:48;100374.06;;;8.78;100.00
18652;BME280;9455;54.302;10.124;2024-03-02T01:18:15;100379.66;;;8.75;100.00
18652;BME280;9455;54.302;10.124;2024-03-02T01:20:42;100376.28;;;8.73;100.00
18652;BME280;9455;54.302;10.124;2024-03-02T01:23:09;100375.31;;;8.74;100.00
18652;BME280;9455;54.302;10.124;2024-03-02T01:25:36;100382.59;;;8.72;100.00
18652;BME280;9455;54.302;10.124;2024-03-02T01:28:03;100380.75;;;8.93;100.00
18652;BME280;9455;54.302;10.124;2024-03-02T01:30:30;100379.38;;;8.99;100.00
18652;BME280;9455;54.302;10.124;2024-03-02T01:33:03;100378.22;;;8.92;100.00
18652;BME280;9455;54.302;10.124;2024-03-02T01:35:30;100378.97;;;8.73;100.00
18652;BME280;9455;54.302;10.124;2024-03-02T01:37:57;100380.63;;;8.74;100.00
18652;BME280;9455;54.302;10.124;2024-03-02T01:40:25;100378.47;;;8.68;100.00
18652;BME280;9455;54.302;10.124;2024-03-02T01:42:52;100375.69;;;8.70;100.00
18652;BME280;9455;54.302;10.124;2024-03-02T01:45:19;100382.84;;;8.69;100.00
18652;BME280;9455;54.302;10.124;2024-03-02T01:47:46;100384.91;;;8.66;100.00
18652;BME280;9455;54.302;10.124;2024-03-02T01:50:13;100380.06;;;9.01;100.00
18652;BME280;9455;54.302;10.124;2024-03-02T01:52:40;100379.47;;;8.67;100.00
18652;BME280;9455;54.302;10.124;2024-03-02T01:55:08;100384.13;;;8.54;100.00
18652;BME280;9455;54.302;10.124;2024-03-02T01:57:36;100384.13;;;8.54;100.00
18652;BME280;9455;54.302;10.124;2024-03-02T02:00:03;100380.84;;;8.41;100.00
18652;BME280;9455;54.302;10.124;2024-03-02T02:02:30;100387.09;;;8.40;100.00
18652;BME280;9455;54.302;10.124;2024-03-02T02:04:57;100387.47;;;8.47;100.00
18652;BME280;9455;54.302;10.124;2024-03-02T02:07:24;100393.59;;;8.88;100.00
18652;BME280;9455;54.302;10.124;2024-03-02T02:09:50;100388.03;;;8.50;100.00
18652;BME280;9455;54.302;10.124;2024-03-02T02:12:17;100386.78;;;8.33;100.00
18652;BME280;9455;54.302;10.124;2024-03-02T02:14:48;100384.00;;;8.35;100.00
18652;BME280;9455;54.302;10.124;2024-03-02T02:17:15;100384.44;;;8.40;100.00
18652;BME280;9455;54.302;10.124;2024-03-02T02:19:42;100378.19;;;8.41;100.00
18652;BME280;9455;54.302;10.124;2024-03-02T02:22:10;100373.25;;;8.36;100.00
18652;BME280;9455;54.302;10.124;2024-03-02T02:24:39;100376.16;;;8.33;100.00
18652;BME280;9455;54.302;10.124;2024-03-02T02:27:06;100370.00;;;8.33;100.00
18652;BME280;9455;54.302;10.124;2024-03-02T02:29:33;100371.59;;;8.24;100.00
18652;BME280;9455;54.302;10.124;2024-03-02T02:32:00;100369.44;;;8.29;100.00
18652;BME280;9455;54.302;10.124;2024-03-02T02:34:27;100367.94;;;8.36;100.00
18652;BME280;9455;54.302;10.124;2024-03-02T02:36:53;100361.06;;;8.55;100.00
18652;BME280;9455;54.302;10.124;2024-03-02T02:39:22;100360.44;;;8.62;100.00
18652;BME280;9455;54.302;10.124;2024-03-02T02:41:49;100360.38;;;8.21;100.00
18652;BME280;9455;54.302;10.124;2024-03-02T02:44:15;100368.59;;;8.18;100.00
18652;BME280;9455;54.302;10.124;2024-03-02T02:46:42;100373.13;;;8.06;100.00
18652;BME280;9455;54.302;10.124;2024-03-02T02:49:08;100376.50;;;8.08;100.00
18652;BME280;9455;54.302;10.124;2024-03-02T02:51:35;100379.03;;;8.10;100.00
18652;BME280;9455;54.302;10.124;2024-03-02T02:54:02;100372.13;;;8.18;100.00
18652;BME280;9455;54.302;10.124;2024-03-02T02:56:30;100367.66;;;8.08;100.00
18652;BME280;9455;54.302;10.124;2024-03-02T02:58:57;100367.16;;;8.25;100.00
18652;BME280;9455;54.302;10.124;2024-03-02T03:01:24;100363.47;;;8.37;100.00
18652;BME280;9455;54.302;10.124;2024-03-02T03:03:50;100364.59;;;8.55;100.00
18652;BME280;9455;54.302;10.124;2024-03-02T03:06:17;100367.94;;;8.57;100.00
18652;BME280;9455;54.302;10.124;2024-03-02T03:08:44;100365.22;;;8.27;100.00
18652;BME280;9455;54.302;10.124;2024-03-02T03:11:10;100370.28;;;8.19;100.00
18652;BME280;9455;54.302;10.124;2024-03-02T03:13:38;100368.13;;;8.44;100.00
18652;BME280;9455;54.302;10.124;2024-03-02T03:16:05;100357.63;;;8.43;100.00
18652;BME280;9455;54.302;10.124;2024-03-02T03:18:32;100347.47;;;8.16;100.00
18652;BME280;9455;54.302;10.124;2024-03-02T03:20:58;100353.66;;;8.17;100.00
18652;BME280;9455;54.302;10.124;2024-03-02T03:23:25;100347.59;;;8.15;100.00
18652;BME280;9455;54.302;10.124;2024-03-02T03:25:51;100348.31;;;8.28;100.00
18652;BME280;9455;54.302;10.124;2024-03-02T03:28:18;100347.78;;;8.34;100.00
18652;BME280;9455;54.302;10.124;2024-03-02T03:30:45;100340.28;;;8.39;100.00
18652;BME280;9455;54.302;10.124;2024-03-02T03:33:12;100348.75;;;8.33;100.00
18652;BME280;9455;54.302;10.124;2024-03-02T03:35:41;100340.84;;;8.22;100.00
18652;BME280;9455;54.302;10.124;2024-03-02T03:38:08;100342.69;;;8.21;100.00
18652;BME280;9455;54.302;10.124;2024-03-02T03:40:35;100339.72;;;8.24;100.00
18652;BME280;9455;54.302;10.124;2024-03-02T03:43:01;100351.47;;;8.22;100.00
18652;BME280;9455;54.302;10.124;2024-03-02T03:45:28;100354.22;;;8.20;100.00
18652;BME280;9455;54.302;10.124;2024-03-02T03:47:57;100351.09;;;8.26;100.00
18652;BME280;9455;54.302;10.124;2024-03-02T03:50:23;100356.53;;;8.25;100.00
18652;BME280;9455;54.302;10.124;2024-03-02T03:52:50;100351.22;;;8.25;100.00
18652;BME280;9455;54.302;10.124;2024-03-02T03:55:17;100358.72;;;8.20;100.00
18652;BME280;9455;54.302;10.124;2024-03-02T03:57:43;100358.63;;;8.21;100.00
18652;BME280;9455;54.302;10.124;2024-03-02T04:00:10;100355.53;;;8.26;100.00
18652;BME280;9455;54.302;10.124;2024-03-02T04:02:37;100363.75;;;8.34;100.00
18652;BME280;9455;54.302;10.124;2024-03-02T04:05:06;100358.19;;;8.26;100.00
18652;BME280;9455;54.302;10.124;2024-03-02T04:07:36;100360.84;;;8.26;100.00
18652;BME280;9455;54.302;10.124;2024-03-02T04:10:07;100363.78;;;8.12;100.00
18652;BME280;9455;54.302;10.124;2024-03-02T04:12:35;100357.53;;;8.13;100.00
18652;BME280;9455;54.302;10.124;2024-03-02T04:15:02;100363.41;;;8.16;100.00
18652;BME280;9455;54.302;10.124;2024-03-02T04:17:31;100354.47;;;8.17;100.00
18652;BME280;9455;54.302;10.124;2024-03-02T04:19:57;100361.88;;;8.14;100.00
18652;BME280;9455;54.302;10.124;2024-03-02T04:22:25;100364.13;;;8.18;100.00
18652;BME280;9455;54.302;10.124;2024-03-02T04:24:52;100366.59;;;8.21;100.00
18652;BME280;9455;54.302;10.124;2024-03-02T04:27:19;100366.44;;;8.12;100.00
18652;BME280;9455;54.302;10.124;2024-03-02T04:29:45;100366.97;;;8.06;100.00
18652;BME280;9455;54.302;10.124;2024-03-02T04:32:12;100369.94;;;8.23;100.00
18652;BME280;9455;54.302;10.124;2024-03-02T04:34:38;100370.09;;;8.11;100.00
18652;BME280;9455;54.302;10.124;2024-03-02T04:37:05;100371.44;;;8.05;100.00
18652;BME280;9455;54.302;10.124;2024-03-02T04:39:34;100372.50;;;8.14;100.00
18652;BME280;9455;54.302;10.124;2024-03-02T04:42:00;100370.69;;;8.14;100.00
18652;BME280;9455;54.302;10.124;2024-03-02T04:44:28;100366.31;;;8.13;100.00
18652;BME280;9455;54.302;10.124;2024-03-02T04:46:54;100376.38;;;8.10;100.00
18652;BME280;9455;54.302;10.124;2024-03-02T04:49:21;100364.78;;;8.11;100.00
18652;BME280;9455;54.302;10.124;2024-03-02T04:51:47;100366.97;;;8.06;100.00
18652;BME280;9455;54.302;10.124;2024-03-02T04:54:14;100357.69;;;8.00;100.00
18652;BME280;9455;54.302;10.124;2024-03-02T04:56:42;100350.75;;;8.09;100.00
18652;BME280;9455;54.302;10.124;2024-03-02T04:59:09;100344.75;;;8.07;100.00
18652;BME280;9455;54.302;10.124;2024-03-02T05:01:36;100346.31;;;8.09;100.00
18652;BME280;9455;54.302;10.124;2024-03-02T05:04:03;100336.78;;;8.07;100.00
18652;BME280;9455;54.302;10.124;2024-03-02T05:06:29;100350.88;;;8.07;100.00
18652;BME280;9455;54.302;10.124;2024-03-02T05:08:56;100345.44;;;8.09;100.00
18652;BME280;9455;54.302;10.124;2024-03-02T05:11:23;100350.56;;;8.01;100.00
18652;BME280;9455;54.302;10.124;2024-03-02T05:14:15;100336.16;;;8.14;100.00
18652;BME280;9455;54.302;10.124;2024-03-02T05:16:43;100327.00;;;8.07;100.00
18652;BME280;9455;54.302;10.124;2024-03-02T05:19:09;100323.50;;;8.07;100.00
18652;BME280;9455;54.302;10.124;2024-03-02T05:21:36;100329.44;;;7.79;100.00
18652;BME280;9455;54.302;10.124;2024-03-02T05:24:03;100330.66;;;7.64;100.00
18652;BME280;9455;54.302;10.124;2024-03-02T05:26:30;100328.00;;;7.75;100.00
18652;BME280;9455;54.302;10.124;2024-03-02T05:28:56;100327.03;;;7.76;100.00
18652;BME280;9455;54.302;10.124;2024-03-02T05:31:24;100338.56;;;7.86;100.00
18652;BME280;9455;54.302;10.124;2024-03-02T05:33:51;100342.78;;;7.88;100.00
18652;BME280;9455;54.302;10.124;2024-03-02T05:36:17;100349.38;;;7.94;100.00
18652;BME280;9455;54.302;10.124;2024-03-02T05:38:45;100349.47;;;8.03;100.00
18652;BME280;9455;54.302;10.124;2024-03-02T05:41:12;100350.69;;;7.99;100.00
18652;BME280;9455;54.302;10.124;2024-03-02T05:43:39;100362.63;;;8.05;100.00
18652;BME280;9455;54.302;10.124;2024-03-02T05:46:05;100360.13;;;7.92;100.00
18652;BME280;9455;54.302;10.124;2024-03-02T05:48:33;100350.38;;;7.93;100.00
18652;BME280;9455;54.302;10.124;2024-03-02T05:51:00;100338.56;;;7.86;100.00
18652;BME280;9455;54.302;10.124;2024-03-02T05:53:26;100346.78;;;7.83;100.00
18652;BME280;9455;54.302;10.124;2024-03-02T05:55:53;100362.91;;;7.91;100.00
18652;BME280;9455;54.302;10.124;2024-03-02T05:58:21;100363.88;;;7.90;100.00
18652;BME280;9455;54.302;10.124;2024-03-02T06:00:58;100359.31;;;7.81;100.00
18652;BME280;9455;54.302;10.124;2024-03-02T06:03:24;100364.13;;;7.87;100.00
18652;BME280;9455;54.302;10.124;2024-03-02T06:05:52;100358.78;;;7.98;100.00
18652;BME280;9455;54.302;10.124;2024-03-02T06:08:19;100366.88;;;7.96;100.00
18652;BME280;9455;54.302;10.124;2024-03-02T06:10:45;100370.41;;;7.86;100.00
18652;BME280;9455;54.302;10.124;2024-03-02T06:13:12;100372.78;;;8.00;100.00
18652;BME280;9455;54.302;10.124;2024-03-02T06:15:39;100371.34;;;7.96;100.00
18652;BME280;9455;54.302;10.124;2024-03-02T06:18:05;100364.88;;;7.89;100.00
18652;BME280;9455;54.302;10.124;2024-03-02T06:20:33;100373.44;;;7.81;100.00
18652;BME280;9455;54.302;10.124;2024-03-02T06:23:01;100364.63;;;7.92;100.00
18652;BME280;9455;54.302;10.124;2024-03-02T06:25:28;100362.72;;;7.83;100.00
18652;BME280;9455;54.302;10.124;2024-03-02T06:27:55;100370.50;;;7.95;100.00
18652;BME280;9455;54.302;10.124;2024-03-02T06:30:21;100375.25;;;7.92;100.00
18652;BME280;9455;54.302;10.124;2024-03-02T06:32:48;100370.38;;;7.97;100.00
18652;BME280;9455;54.302;10.124;2024-03-02T06:35:14;100375.56;;;7.98;100.00
18652;BME280;9455;54.302;10.124;2024-03-02T06:37:41;100371.56;;;8.04;100.00
18652;BME280;9455;54.302;10.124;2024-03-02T06:40:09;100371.94;;;7.99;100.00
18652;BME280;9455;54.302;10.124;2024-03-02T06:42:35;100374.22;;;8.04;100.00
18652;BME280;9455;54.302;10.124;2024-03-02T06:45:02;100364.44;;;8.04;100.00
18652;BME280;9455;54.302;10.124;2024-03-02T06:47:29;100366.00;;;8.07;100.00
18652;BME280;9455;54.302;10.124;2024-03-02T06:49:56;100360.88;;;8.15;100.00
18652;BME280;9455;54.302;10.124;2024-03-02T06:52:23;100373.19;;;8.16;100.00
18652;BME280;9455;54.302;10.124;2024-03-02T06:54:50;100371.50;;;8.15;100.00
18652;BME280;9455;54.302;10.124;2024-03-02T06:57:18;100370.69;;;8.14;100.00
18652;BME280;9455;54.302;10.124;2024-03-02T06:59:46;100374.41;;;8.12;100.00
18652;BME280;9455;54.302;10.124;2024-03-02T07:02:12;100363.53;;;8.15;100.00
18652;BME280;9455;54.302;10.124;2024-03-02T07:04:39;100372.13;;;8.18;100.00
18652;BME280;9455;54.302;10.124;2024-03-02T07:07:05;100368.56;;;8.29;100.00
18652;BME280;9455;54.302;10.124;2024-03-02T07:09:32;100361.84;;;8.25;100.00
18652;BME280;9455;54.302;10.124;2024-03-02T07:11:58;100362.09;;;8.22;100.00
18652;BME280;9455;54.302;10.124;2024-03-02T07:14:26;100368.78;;;8.37;100.00
18652;BME280;9455;54.302;10.124;2024-03-02T07:17:13;100362.38;;;8.39;100.00
18652;BME280;9455;54.302;10.124;2024-03-02T07:19:40;100364.44;;;8.36;100.00
18652;BME280;9455;54.302;10.124;2024-03-02T07:22:06;100369.38;;;8.40;100.00
18652;BME280;9455;54.302;10.124;2024-03-02T07:24:39;100374.03;;;8.48;100.00
18652;BME280;9455;54.302;10.124;2024-03-02T07:27:06;100369.13;;;8.43;100.00
18652;BME280;9455;54.302;10.124;2024-03-02T07:29:35;100377.66;;;8.47;100.00
18652;BME280;9455;54.302;10.124;2024-03-02T07:32:02;100373.50;;;8.54;100.00
18652;BME280;9455;54.302;10.124;2024-03-02T07:34:28;100373.06;;;8.49;100.00
18652;BME280;9455;54.302;10.124;2024-03-02T07:36:55;100372.88;;;8.41;100.00
18652;BME280;9455;54.302;10.124;2024-03-02T07:39:22;100383.25;;;8.44;100.00
18652;BME280;9455;54.302;10.124;2024-03-02T07:41:49;100385.38;;;8.50;100.00
18652;BME280;9455;54.302;10.124;2024-03-02T07:44:15;100391.59;;;8.60;100.00
18652;BME280;9455;54.302;10.124;2024-03-02T07:46:46;100393.09;;;8.53;100.00
18652;BME280;9455;54.302;10.124;2024-03-02T07:49:15;100397.88;;;8.59;100.00
18652;BME280;9455;54.302;10.124;2024-03-02T07:51:41;100393.69;;;8.57;100.00
18652;BME280;9455;54.302;10.124;2024-03-02T07:54:08;100390.47;;;8.63;100.00
18652;BME280;9455;54.302;10.124;2024-03-02T07:56:35;100391.00;;;8.77;100.00
18652;BME280;9455;54.302;10.124;2024-03-02T07:59:02;100394.31;;;8.90;100.00
18652;BME280;9455;54.302;10.124;2024-03-02T08:01:28;100384.66;;;8.89;100.00
18652;BME280;9455;54.302;10.124;2024-03-02T08:03:57;100386.59;;;8.87;100.00
18652;BME280;9455;54.302;10.124;2024-03-02T08:06:24;100387.16;;;8.91;100.00
18652;BME280;9455;54.302;10.124;2024-03-02T08:08:53;100384.38;;;8.92;100.00
18652;BME280;9455;54.302;10.124;2024-03-02T08:11:20;100375.59;;;9.01;100.00
18652;BME280;9455;54.302;10.124;2024-03-02T08:13:46;100373.94;;;9.00;100.00
18652;BME280;9455;54.302;10.124;2024-03-02T08:16:13;100383.88;;;9.08;100.00
18652;BME280;9455;54.302;10.124;2024-03-02T08:18:40;100392.53;;;9.00;100.00
18652;BME280;9455;54.302;10.124;2024-03-02T08:21:08;100388.94;;;9.11;100.00
18652;BME280;9455;54.302;10.124;2024-03-02T08:23:35;100395.38;;;9.08;100.00
18652;BME280;9455;54.302;10.124;2024-03-02T08:26:02;100406.28;;;9.05;100.00
18652;BME280;9455;54.302;10.124;2024-03-02T08:28:28;100422.88;;;9.18;100.00
18652;BME280;9455;54.302;10.124;2024-03-02T08:30:55;100414.53;;;9.32;100.00
18652;BME280;9455;54.302;10.124;2024-03-02T08:33:22;100416.47;;;9.30;100.00
18652;BME280;9455;54.302;10.124;2024-03-02T08:35:48;100403.59;;;9.26;100.00
18652;BME280;9455;54.302;10.124;2024-03-02T08:38:16;100417.56;;;9.18;100.00
18652;BME280;9455;54.302;10.124;2024-03-02T08:40:43;100411.22;;;9.10;100.00
18652;BME280;9455;54.302;10.124;2024-03-02T08:43:10;100420.97;;;9.30;100.00
18652;BME280;9455;54.302;10.124;2024-03-02T08:45:37;100428.88;;;9.50;100.00
18652;BME280;9455;54.302;10.124;2024-03-02T08:48:06;100432.44;;;9.60;100.00
18652;BME280;9455;54.302;10.124;2024-03-02T08:50:33;100430.78;;;9.78;100.00
18652;BME280;9455;54.302;10.124;2024-03-02T08:53:00;100439.38;;;9.42;100.00
18652;BME280;9455;54.302;10.124;2024-03-02T08:55:28;100445.34;;;9.65;100.00
18652;BME280;9455;54.302;10.124;2024-03-02T08:57:54;100440.63;;;9.78;100.00
18652;BME280;9455;54.302;10.124;2024-03-02T09:00:21;100438.25;;;9.94;100.00
18652;BME280;9455;54.302;10.124;2024-03-02T09:02:48;100441.91;;;9.93;100.00
18652;BME280;9455;54.302;10.124;2024-03-02T09:05:15;100437.59;;;10.01;100.00
18652;BME280;9455;54.302;10.124;2024-03-02T09:07:42;100443.34;;;10.06;100.00
18652;BME280;9455;54.302;10.124;2024-03-02T09:10:09;100440.28;;;10.11;100.00
18652;BME280;9455;54.302;10.124;2024-03-02T09:12:37;100442.47;;;9.96;100.00
18652;BME280;9455;54.302;10.124;2024-03-02T09:15:05;100444.50;;;10.13;100.00
18652;BME280;9455;54.302;10.124;2024-03-02T09:17:32;100445.25;;;9.85;100.00
18652;BME280;9455;54.302;10.124;2024-03-02T09:19:59;100447.22;;;9.83;100.00
18652;BME280;9455;54.302;10.124;2024-03-02T09:22:26;100452.38;;;10.24;100.00
18652;BME280;9455;54.302;10.124;2024-03-02T09:24:52;100443.25;;;10.36;100.00
18652;BME280;9455;54.302;10.124;2024-03-02T09:27:19;100451.25;;;10.17;100.00
18652;BME280;9455;54.302;10.124;2024-03-02T09:29:47;100453.91;;;10.36;100.00
18652;BME280;9455;54.302;10.124;2024-03-02T09:32:14;100444.97;;;10.47;100.00
18652;BME280;9455;54.302;10.124;2024-03-02T09:34:41;100448.72;;;10.44;100.00
18652;BME280;9455;54.302;10.124;2024-03-02T09:37:08;100451.53;;;10.43;100.00
18652;BME280;9455;54.302;10.124;2024-03-02T09:39:35;100459.69;;;10.51;100.00
18652;BME280;9455;54.302;10.124;2024-03-02T09:42:03;100454.63;;;10.48;100.00
18652;BME280;9455;54.302;10.124;2024-03-02T09:44:30;100451.38;;;10.44;100.00
18652;BME280;9455;54.302;10.124;2024-03-02T09:46:59;100449.59;;;10.26;100.00
18652;BME280;9455;54.302;10.124;2024-03-02T09:49:25;100447.06;;;10.24;100.00
18652;BME280;9455;54.302;10.124;2024-03-02T09:51:52;100446.78;;;10.46;100.00
18652;BME280;9455;54.302;10.124;2024-03-02T09:54:19;100443.13;;;10.47;100.00
18652;BME280;9455;54.302;10.124;2024-03-02T09:56:46;100450.84;;;10.50;100.00
18652;BME280;9455;54.302;10.124;2024-03-02T09:59:13;100439.06;;;10.62;100.00
18652;BME280;9455;54.302;10.124;2024-03-02T10:01:55;100447.34;;;10.59;100.00
18652;BME280;9455;54.302;10.124;2024-03-02T10:04:24;100448.47;;;10.66;100.00
18652;BME280;9455;54.302;10.124;2024-03-02T10:06:51;100449.16;;;10.68;100.00
18652;BME280;9455;54.302;10.124;2024-03-02T10:09:27;100445.78;;;10.66;100.00
18652;BME280;9455;54.302;10.124;2024-03-02T10:12:03;100447.19;;;10.70;100.00
18652;BME280;9455;54.302;10.124;2024-03-02T10:14:30;100460.81;;;10.67;100.00
18652;BME280;9455;54.302;10.124;2024-03-02T10:17:02;100448.19;;;10.69;100.00
18652;BME280;9455;54.302;10.124;2024-03-02T10:19:30;100444.53;;;10.70;100.00
18652;BME280;9455;54.302;10.124;2024-03-02T10:21:58;100438.34;;;10.70;100.00
18652;BME280;9455;54.302;10.124;2024-03-02T10:24:25;100449.00;;;10.89;100.00
18652;BME280;9455;54.302;10.124;2024-03-02T10:26:52;100450.38;;;10.93;100.00
18652;BME280;9455;54.302;10.124;2024-03-02T10:29:19;100440.72;;;10.92;100.00
18652;BME280;9455;54.302;10.124;2024-03-02T10:31:46;100443.09;;;10.85;100.00
18652;BME280;9455;54.302;10.124;2024-03-02T10:34:13;100441.97;;;10.97;100.00
18652;BME280;9455;54.302;10.124;2024-03-02T10:36:43;100440.94;;;11.08;100.00
18652;BME280;9455;54.302;10.124;2024-03-02T10:39:12;100437.44;;;11.07;100.00
18652;BME280;9455;54.302;10.124;2024-03-02T10:41:39;100438.84;;;11.11;100.00
18652;BME280;9455;54.302;10.124;2024-03-02T10:44:07;100434.59;;;11.18;100.00
18652;BME280;9455;54.302;10.124;2024-03-02T10:46:35;100432.31;;;11.23;100.00
18652;BME280;9455;54.302;10.124;2024-03-02T10:49:03;100440.50;;;11.12;100.00
18652;BME280;9455;54.302;10.124;2024-03-02T10:51:31;100440.50;;;11.12;100.00
18652;BME280;9455;54.302;10.124;2024-03-02T10:54:00;100435.44;;;11.19;100.00
18652;BME280;9455;54.302;10.124;2024-03-02T10:56:28;100449.19;;;11.24;100.00
18652;BME280;9455;54.302;10.124;2024-03-02T10:59:01;100445.28;;;11.18;100.00
18652;BME280;9455;54.302;10.124;2024-03-02T11:01:29;100448.34;;;11.23;100.00
18652;BME280;9455;54.302;10.124;2024-03-02T11:03:56;100441.19;;;11.24;100.00
18652;BME280;9455;54.302;10.124;2024-03-02T11:06:23;100447.78;;;11.30;100.00
18652;BME280;9455;54.302;10.124;2024-03-02T11:08:53;100459.13;;;11.41;100.00
18652;BME280;9455;54.302;10.124;2024-03-02T11:11:29;100452.25;;;11.39;100.00
18652;BME280;9455;54.302;10.124;2024-03-02T11:13:57;100459.50;;;11.46;100.00
18652;BME280;9455;54.302;10.124;2024-03-02T11:16:34;100465.41;;;11.50;100.00
18652;BME280;9455;54.302;10.124;2024-03-02T11:19:03;100461.75;;;11.51;100.00
18652;BME280;9455;54.302;10.124;2024-03-02T11:21:31;100461.16;;;11.66;100.00
18652;BME280;9455;54.302;10.124;2024-03-02T11:23:59;100464.53;;;11.68;100.00
18652;BME280;9455;54.302;10.124;2024-03-02T11:26:29;100464.22;;;11.71;100.00
18652;BME280;9455;54.302;10.124;2024-03-02T11:28:55;100456.75;;;11.75;100.00
18652;BME280;9455;54.302;10.124;2024-03-02T11:31:58;100460.50;;;11.82;100.00
18652;BME280;9455;54.302;10.124;2024-03-02T11:34:29;100465.28;;;11.88;100.00
18652;BME280;9455;54.302;10.124;2024-03-02T11:36:56;100459.63;;;11.91;100.00
18652;BME280;9455;54.302;10.124;2024-03-02T11:39:22;100458.06;;;12.15;100.00
18652;BME280;9455;54.302;10.124;2024-03-02T11:41:50;100463.84;;;11.93;100.00
18652;BME280;9455;54.302;10.124;2024-03-02T11:44:17;100460.41;;;12.01;100.00
18652;BME280;9455;54.302;10.124;2024-03-02T11:46:44;100458.72;;;12.00;100.00
18652;BME280;9455;54.302;10.124;2024-03-02T11:49:14;100452.63;;;12.07;100.00
18652;BME280;9455;54.302;10.124;2024-03-02T11:51:50;100458.50;;;12.11;100.00
18652;BME280;9455;54.302;10.124;2024-03-02T11:54:20;100460.16;;;12.21;100.00
18652;BME280;9455;54.302;10.124;2024-03-02T11:56:47;100463.47;;;12.23;100.00
18652;BME280;9455;54.302;10.124;2024-03-02T11:59:15;100459.84;;;12.24;100.00
18652;BME280;9455;54.302;10.124;2024-03-02T12:01:42;100466.50;;;12.20;100.00
18652;BME280;9455;54.302;10.124;2024-03-02T12:04:10;100465.34;;;12.23;100.00
18652;BME280;9455;54.302;10.124;2024-03-02T12:06:37;100468.69;;;12.25;100.00
18652;BME280;9455;54.302;10.124;2024-03-02T12:09:04;100474.66;;;12.36;100.00
18652;BME280;9455;54.302;10.124;2024-03-02T12:11:36;100472.47;;;12.49;100.00
18652;BME280;9455;54.302;10.124;2024-03-02T12:14:03;100466.88;;;12.43;100.00
18652;BME280;9455;54.302;10.124;2024-03-02T12:16:31;100474.00;;;12.34;100.00
18652;BME280;9455;54.302;10.124;2024-03-02T12:18:57;100473.06;;;12.26;100.00
18652;BME280;9455;54.302;10.124;2024-03-02T12:21:24;100469.00;;;12.22;100.00
18652;BME280;9455;54.302;10.124;2024-03-02T12:23:51;100470.28;;;12.18;100.00
18652;BME280;9455;54.302;10.124;2024-03-02T12:26:18;100471.28;;;12.17;100.00
18652;BME280;9455;54.302;10.124;2024-03-02T12:28:45;100467.59;;;12.18;100.00
18652;BME280;9455;54.302;10.124;2024-03-02T12:31:13;100467.59;;;12.18;100.00
18652;BME280;9455;54.302;10.124;2024-03-02T12:33:41;100463.56;;;12.14;100.00
18652;BME280;9455;54.302;10.124;2024-03-02T12:36:09;100460.59;;;12.17;100.00
18652;BME280;9455;54.302;10.124;2024-03-02T12:38:37;100463.97;;;12.19;100.00
18652;BME280;9455;54.302;10.124;2024-03-02T12:41:04;100466.66;;;12.09;100.00
18652;BME280;9455;54.302;10.124;2024-03-02T12:43:31;100469.91;;;12.13;100.00
18652;BME280;9455;54.302;10.124;2024-03-02T12:45:58;100465.44;;;12.04;100.00
18652;BME280;9455;54.302;10.124;2024-03-02T12:48:24;100465.44;;;12.04;100.00
18652;BME280;9455;54.302;10.124;2024-03-02T12:50:52;100472.09;;;12.00;100.00
18652;BME280;9455;54.302;10.124;2024-03-02T12:53:21;100467.59;;;12.00;100.00